createdAt,value
2022-07-26T00:01:32.201Z,100069.03
2022-07-26T00:04:00.818Z,100063.19
2022-07-26T00:06:28.591Z,100069.38
2022-07-26T00:08:56.381Z,100077.66
2022-07-26T00:11:23.851Z,100084.63
2022-07-26T00:14:17.161Z,100091.25
2022-07-26T00:16:44.499Z,100099.81
2022-07-26T00:19:12.043Z,100116.88
2022-07-26T00:21:40.903Z,100112.22
2022-07-26T00:24:08.870Z,100111.31
2022-07-26T00:26:36.794Z,100114.97
2022-07-26T00:29:06.017Z,100125.16
2022-07-26T00:31:33.869Z,100125.91
2022-07-26T00:34:01.447Z,100130.78
2022-07-26T00:36:30.110Z,100129.16
2022-07-26T00:38:58.007Z,100129.16
2022-07-26T00:41:25.346Z,100131.50
2022-07-26T00:43:53.809Z,100134.09
2022-07-26T00:46:21.278Z,100132.75
2022-07-26T00:48:48.672Z,100144.84
2022-07-26T00:51:16.235Z,100140.50
2022-07-26T00:53:45.750Z,100128.75
2022-07-26T00:56:14.646Z,100130.78
2022-07-26T00:58:43.229Z,100134.53
2022-07-26T01:01:12.726Z,100122.44
2022-07-26T01:03:40.213Z,100115.91
2022-07-26T01:06:08.186Z,100109.00
2022-07-26T01:08:35.957Z,100122.75
2022-07-26T01:11:04.236Z,100119.28
2022-07-26T01:13:35.307Z,100114.34
2022-07-26T01:16:04.074Z,100112.72
2022-07-26T01:18:31.999Z,100116.03
2022-07-26T01:21:09.542Z,100104.97
2022-07-26T01:23:42.638Z,100114.47
2022-07-26T01:26:10.824Z,100101.47
2022-07-26T01:28:39.653Z,100107.09
2022-07-26T01:31:08.230Z,100106.06
2022-07-26T01:33:35.922Z,100109.16
2022-07-26T01:36:03.516Z,100103.09
2022-07-26T01:38:30.815Z,100097.34
2022-07-26T01:40:58.110Z,100103.94
2022-07-26T01:43:25.346Z,100107.34
2022-07-26T01:45:55.185Z,100099.22
2022-07-26T01:48:22.744Z,100093.63
2022-07-26T01:50:49.973Z,100094.22
2022-07-26T01:53:17.212Z,100103.28
2022-07-26T01:55:44.360Z,100093.03
2022-07-26T01:58:11.578Z,100094.41
2022-07-26T02:00:38.706Z,100093.75
2022-07-26T02:03:05.968Z,100095.75
2022-07-26T02:05:33.259Z,100092.19
2022-07-26T02:08:00.604Z,100085.53
2022-07-26T02:10:50.947Z,100090.59
2022-07-26T02:13:18.129Z,100092.00
2022-07-26T02:15:45.366Z,100089.97
2022-07-26T02:18:12.597Z,100091.16
2022-07-26T02:20:39.756Z,100100.47
2022-07-26T02:23:07.005Z,100095.19
2022-07-26T02:25:34.173Z,100096.41
2022-07-26T02:28:01.633Z,100086.34
2022-07-26T02:30:29.137Z,100088.69
2022-07-26T02:32:57.090Z,100088.28
2022-07-26T02:35:24.325Z,100090.94
2022-07-26T02:37:51.506Z,100101.66
2022-07-26T02:40:19.644Z,100107.25
2022-07-26T02:42:46.887Z,100102.03
2022-07-26T02:45:14.131Z,100098.06
2022-07-26T02:47:51.592Z,100085.19
2022-07-26T02:50:20.430Z,100091.19
2022-07-26T02:52:48.340Z,100094.69
2022-07-26T02:55:16.516Z,100095.78
2022-07-26T02:57:46.219Z,100088.56
2022-07-26T03:00:16.399Z,100101.09
2022-07-26T03:02:43.783Z,100102.84
2022-07-26T03:05:11.206Z,100096.16
2022-07-26T03:07:38.471Z,100086.38
2022-07-26T03:10:05.843Z,100088.56
2022-07-26T03:12:33.138Z,100094.44
2022-07-26T03:15:00.678Z,100086.16
2022-07-26T03:17:27.944Z,100083.84
2022-07-26T03:19:55.137Z,100082.75
2022-07-26T03:22:22.374Z,100080.88
2022-07-26T03:24:49.566Z,100081.81
2022-07-26T03:27:16.759Z,100079.41
2022-07-26T03:29:44.022Z,100087.38
2022-07-26T03:32:11.355Z,100080.59
2022-07-26T03:34:38.570Z,100084.78
2022-07-26T03:37:05.906Z,100089.63
2022-07-26T03:39:33.179Z,100087.06
2022-07-26T03:42:00.459Z,100083.84
2022-07-26T03:44:27.701Z,100083.56
2022-07-26T03:46:55.070Z,100083.25
2022-07-26T03:49:22.455Z,100080.09
2022-07-26T03:51:49.815Z,100079.00
2022-07-26T03:54:17.153Z,100082.53
2022-07-26T03:56:44.557Z,100090.50
2022-07-26T03:59:12.031Z,100087.06
2022-07-26T04:01:42.194Z,100090.25
2022-07-26T04:04:10.579Z,100091.88
2022-07-26T04:06:39.456Z,100091.03
2022-07-26T04:09:07.396Z,100090.88
2022-07-26T04:11:35.635Z,100098.44
2022-07-26T04:14:03.022Z,100096.72
2022-07-26T04:16:30.307Z,100097.66
2022-07-26T04:18:57.645Z,100093.22
2022-07-26T04:21:24.980Z,100095.63
2022-07-26T04:23:55.156Z,100091.78
2022-07-26T04:26:22.478Z,100091.66
2022-07-26T04:28:49.848Z,100097.81
2022-07-26T04:31:17.151Z,100096.28
2022-07-26T04:33:47.625Z,100094.25
2022-07-26T04:36:15.938Z,100092.91
2022-07-26T04:38:43.558Z,100101.09
2022-07-26T04:41:11.023Z,100102.88
2022-07-26T04:43:38.351Z,100101.78
2022-07-26T04:46:05.803Z,100111.56
2022-07-26T04:48:33.267Z,100110.38
2022-07-26T04:51:01.735Z,100106.38
2022-07-26T04:53:28.998Z,100104.59
2022-07-26T04:55:56.321Z,100112.09
2022-07-26T04:58:24.238Z,100099.13
2022-07-26T05:03:39.156Z,100105.34
2022-07-26T05:06:06.950Z,100102.38
2022-07-26T05:08:34.236Z,100109.19
2022-07-26T05:11:01.631Z,100100.13
2022-07-26T05:13:30.538Z,100102.09
2022-07-26T05:15:59.601Z,100104.09
2022-07-26T05:18:27.644Z,100097.34
2022-07-26T05:20:57.259Z,100100.44
2022-07-26T05:23:24.627Z,100109.81
2022-07-26T05:25:51.902Z,100108.91
2022-07-26T05:28:19.297Z,100105.16
2022-07-26T05:30:47.051Z,100103.13
2022-07-26T05:33:16.413Z,100095.94
2022-07-26T05:35:44.434Z,100106.88
2022-07-26T05:38:11.732Z,100106.50
2022-07-26T05:40:38.973Z,100098.84
2022-07-26T05:43:06.281Z,100104.16
2022-07-26T05:45:33.588Z,100108.13
2022-07-26T05:48:00.989Z,100108.63
2022-07-26T05:50:28.546Z,100098.34
2022-07-26T05:52:55.813Z,100105.34
2022-07-26T05:55:23.033Z,100104.31
2022-07-26T05:57:50.265Z,100106.88
2022-07-26T06:00:17.575Z,100108.22
2022-07-26T06:02:44.872Z,100108.06
2022-07-26T06:05:12.168Z,100101.91
2022-07-26T06:07:39.414Z,100107.69
2022-07-26T06:10:06.873Z,100113.69
2022-07-26T06:12:34.185Z,100118.84
2022-07-26T06:15:01.522Z,100114.22
2022-07-26T06:17:30.307Z,100117.97
2022-07-26T06:19:58.405Z,100116.91
2022-07-26T06:22:25.958Z,100129.59
2022-07-26T06:24:53.231Z,100131.09
2022-07-26T06:27:20.551Z,100121.91
2022-07-26T06:29:49.147Z,100120.56
2022-07-26T06:32:16.430Z,100119.94
2022-07-26T06:34:43.773Z,100111.50
2022-07-26T06:37:14.919Z,100115.06
2022-07-26T06:39:42.184Z,100107.38
2022-07-26T06:42:09.389Z,100110.63
2022-07-26T06:44:38.019Z,100116.31
2022-07-26T06:47:05.276Z,100113.38
2022-07-26T06:49:32.609Z,100114.72
2022-07-26T06:51:59.947Z,100103.13
2022-07-26T06:54:27.334Z,100109.81
2022-07-26T06:56:54.801Z,100112.72
2022-07-26T06:59:22.076Z,100117.50
2022-07-26T07:01:58.433Z,100115.63
2022-07-26T07:04:31.747Z,100118.38
2022-07-26T07:07:05.157Z,100118.19
2022-07-26T07:09:33.637Z,100114.59
2022-07-26T07:12:09.902Z,100116.84
2022-07-26T07:14:38.242Z,100115.97
2022-07-26T07:17:12.083Z,100112.88
2022-07-26T07:19:41.368Z,100117.69
2022-07-26T07:22:11.849Z,100116.97
2022-07-26T07:24:39.983Z,100114.91
2022-07-26T07:27:07.449Z,100107.91
2022-07-26T07:29:34.956Z,100107.91
2022-07-26T07:32:03.558Z,100105.47
2022-07-26T07:34:30.890Z,100108.41
2022-07-26T07:36:58.163Z,100109.44
2022-07-26T07:39:27.275Z,100099.13
2022-07-26T07:42:02.640Z,100099.63
2022-07-26T07:44:29.807Z,100101.84
2022-07-26T07:46:57.215Z,100102.97
2022-07-26T07:49:24.687Z,100097.28
2022-07-26T07:51:51.999Z,100098.28
2022-07-26T07:54:19.249Z,100095.00
2022-07-26T07:56:50.457Z,100101.16
2022-07-26T07:59:18.766Z,100104.19
2022-07-26T08:01:46.076Z,100098.47
2022-07-26T08:04:13.382Z,100105.81
2022-07-26T08:06:41.345Z,100099.03
2022-07-26T08:09:09.339Z,100091.72
2022-07-26T08:11:41.875Z,100090.59
2022-07-26T08:14:10.077Z,100088.72
2022-07-26T08:16:37.408Z,100095.81
2022-07-26T08:19:04.712Z,100088.34
2022-07-26T08:21:31.993Z,100092.59
2022-07-26T08:23:59.462Z,100089.00
2022-07-26T08:26:26.748Z,100090.03
2022-07-26T08:28:59.477Z,100086.75
2022-07-26T08:31:36.813Z,100094.06
2022-07-26T08:34:04.191Z,100080.19
2022-07-26T08:36:32.938Z,100082.75
2022-07-26T08:39:01.320Z,100079.13
2022-07-26T08:41:28.726Z,100087.44
2022-07-26T08:44:04.131Z,100081.59
2022-07-26T08:46:34.440Z,100081.59
2022-07-26T08:49:01.801Z,100085.22
2022-07-26T08:51:30.792Z,100088.69
2022-07-26T08:54:05.295Z,100081.91
2022-07-26T08:56:34.115Z,100088.78
2022-07-26T08:59:17.120Z,100090.91
2022-07-26T09:01:51.574Z,100082.97
2022-07-26T09:04:31.624Z,100086.53
2022-07-26T09:07:10.421Z,100088.69
2022-07-26T09:09:39.298Z,100084.00
2022-07-26T09:12:17.015Z,100082.16
2022-07-26T09:14:46.799Z,100080.94
2022-07-26T09:17:15.142Z,100084.03
2022-07-26T09:19:42.429Z,100093.00
2022-07-26T09:22:13.549Z,100087.09
2022-07-26T09:24:42.492Z,100088.81
2022-07-26T09:27:11.211Z,100088.91
2022-07-26T09:29:47.458Z,100078.94
2022-07-26T09:32:18.934Z,100080.44
2022-07-26T09:34:52.536Z,100088.28
2022-07-26T09:37:56.488Z,100088.31
2022-07-26T09:40:30.996Z,100094.09
2022-07-26T09:42:59.907Z,100086.00
2022-07-26T09:45:27.889Z,100083.88
2022-07-26T09:47:57.997Z,100085.56
2022-07-26T09:50:29.758Z,100087.47
2022-07-26T09:53:08.258Z,100091.97
2022-07-26T09:55:44.720Z,100083.66
2022-07-26T09:58:14.209Z,100083.41
2022-07-26T10:00:42.216Z,100085.94
2022-07-26T10:03:09.820Z,100092.78
2022-07-26T10:05:37.931Z,100090.44
2022-07-26T10:08:05.419Z,100089.16
2022-07-26T10:10:55.908Z,100088.53
2022-07-26T10:13:23.527Z,100090.22
2022-07-26T10:15:51.911Z,100091.97
2022-07-26T10:18:39.123Z,100093.03
2022-07-26T10:21:20.425Z,100092.19
2022-07-26T10:23:50.120Z,100095.34
2022-07-26T10:26:37.747Z,100094.69
2022-07-26T10:29:17.179Z,100100.59
2022-07-26T10:31:48.757Z,100097.31
2022-07-26T10:34:32.697Z,100098.56
2022-07-26T10:37:01.355Z,100099.91
2022-07-26T10:39:28.815Z,100096.56
2022-07-26T10:42:00.897Z,100087.00
2022-07-26T10:44:29.036Z,100095.91
2022-07-26T10:47:02.269Z,100090.94
2022-07-26T10:50:03.183Z,100093.78
2022-07-26T10:52:32.376Z,100090.81
2022-07-26T10:55:06.552Z,100097.19
2022-07-26T10:57:42.993Z,100098.69
2022-07-26T11:00:17.678Z,100095.69
2022-07-26T11:02:48.737Z,100094.97
2022-07-26T11:05:17.730Z,100101.31
2022-07-26T11:07:55.793Z,100092.66
2022-07-26T11:10:24.768Z,100103.31
2022-07-26T11:13:18.268Z,100103.50
2022-07-26T11:15:47.239Z,100093.28
2022-07-26T11:18:16.722Z,100087.34
2022-07-26T11:20:44.944Z,100096.75
2022-07-26T11:23:27.781Z,100094.22
2022-07-26T11:26:02.183Z,100099.69
2022-07-26T11:28:30.010Z,100094.31
2022-07-26T11:31:00.229Z,100092.00
2022-07-26T11:33:37.968Z,100095.72
2022-07-26T11:36:06.146Z,100092.72
2022-07-26T11:38:45.635Z,100087.34
2022-07-26T11:41:15.196Z,100091.13
2022-07-26T11:43:42.947Z,100080.75
2022-07-26T11:46:10.409Z,100077.00
2022-07-26T11:48:45.309Z,100082.72
2022-07-26T11:51:14.123Z,100070.84
2022-07-26T11:53:41.776Z,100071.47
2022-07-26T11:56:20.597Z,100070.13
2022-07-26T11:58:51.878Z,100074.03
2022-07-26T12:01:20.182Z,100074.47
2022-07-26T12:03:48.908Z,100070.00
2022-07-26T12:06:17.723Z,100070.66
2022-07-26T12:08:55.758Z,100067.88
2022-07-26T12:11:25.558Z,100066.41
2022-07-26T12:14:00.060Z,100064.72
2022-07-26T12:16:34.202Z,100058.53
2022-07-26T12:19:01.581Z,100060.91
2022-07-26T12:21:39.407Z,100055.56
2022-07-26T12:24:07.206Z,100048.53
2022-07-26T12:26:34.921Z,100045.13
2022-07-26T12:29:20.898Z,100044.06
2022-07-26T12:32:00.751Z,100051.50
2022-07-26T12:34:27.985Z,100044.22
2022-07-26T12:36:55.228Z,100039.75
2022-07-26T12:39:22.524Z,100037.19
2022-07-26T12:41:50.575Z,100042.72
2022-07-26T12:44:17.818Z,100041.00
2022-07-26T12:46:45.147Z,100038.19
2022-07-26T12:49:12.605Z,100035.88
2022-07-26T12:51:40.071Z,100028.03
2022-07-26T12:54:07.646Z,100025.94
2022-07-26T12:56:35.160Z,100031.28
2022-07-26T12:59:02.383Z,100021.53
2022-07-26T13:01:30.037Z,100027.91
2022-07-26T13:03:57.325Z,100034.06
2022-07-26T13:06:24.586Z,100026.84
2022-07-26T13:08:51.818Z,100027.50
2022-07-26T13:11:19.014Z,100026.00
2022-07-26T13:13:46.210Z,100033.66
2022-07-26T13:16:13.386Z,100039.53
2022-07-26T13:18:40.627Z,100038.66
2022-07-26T13:21:07.854Z,100034.00
2022-07-26T13:23:35.850Z,100032.72
2022-07-26T13:26:04.420Z,100034.88
2022-07-26T13:28:36.915Z,100028.97
2022-07-26T13:31:04.227Z,100031.94
2022-07-26T13:33:32.328Z,100033.00
2022-07-26T13:35:59.512Z,100024.50
2022-07-26T13:38:28.384Z,100018.34
2022-07-26T13:40:56.517Z,100023.22
2022-07-26T13:43:24.521Z,100015.56
2022-07-26T13:45:51.873Z,100014.09
2022-07-26T13:48:19.357Z,100007.91
2022-07-26T13:50:46.894Z,100000.47
2022-07-26T13:53:14.189Z,100006.44
2022-07-26T13:55:41.780Z,100002.81
2022-07-26T13:58:10.293Z,100011.53
2022-07-26T14:00:38.206Z,100002.59
2022-07-26T14:03:05.814Z,99997.94
2022-07-26T14:05:33.419Z,99987.72
2022-07-26T14:08:00.737Z,99986.19
2022-07-26T14:10:28.161Z,99994.75
2022-07-26T14:12:55.472Z,99992.63
2022-07-26T14:15:23.642Z,99997.31
2022-07-26T14:17:51.643Z,100004.13
2022-07-26T14:20:19.222Z,100003.41
2022-07-26T14:22:47.669Z,99999.59
2022-07-26T14:25:14.962Z,100003.47
2022-07-26T14:27:42.288Z,100000.84
2022-07-26T14:30:09.920Z,100000.22
2022-07-26T14:32:37.212Z,100000.06
2022-07-26T14:35:04.841Z,100000.84
2022-07-26T14:37:43.571Z,100003.03
2022-07-26T14:40:31.056Z,100002.31
2022-07-26T14:42:58.214Z,99988.09
2022-07-26T14:45:25.516Z,99988.31
2022-07-26T14:47:52.676Z,99995.38
2022-07-26T14:50:19.998Z,99993.84
2022-07-26T14:52:47.620Z,99987.66
2022-07-26T14:55:15.310Z,99993.00
2022-07-26T14:57:42.578Z,99997.72
2022-07-26T15:00:10.985Z,99992.00
2022-07-26T15:02:39.673Z,100007.50
2022-07-26T15:05:07.078Z,99999.16
2022-07-26T15:07:34.390Z,99998.56
2022-07-26T15:10:01.736Z,99994.31
2022-07-26T15:12:28.969Z,99991.34
2022-07-26T15:14:56.766Z,99990.28
2022-07-26T15:17:24.028Z,99997.31
2022-07-26T15:19:51.301Z,99995.19
2022-07-26T15:22:18.528Z,100003.84
2022-07-26T15:24:45.717Z,100000.22
2022-07-26T15:27:12.993Z,99997.03
2022-07-26T15:29:41.332Z,99992.97
2022-07-26T15:32:08.604Z,100000.16
2022-07-26T15:34:35.876Z,99998.47
2022-07-26T15:37:03.210Z,99985.31
2022-07-26T15:39:30.538Z,99989.13
2022-07-26T15:42:05.404Z,99997.41
2022-07-26T15:44:36.821Z,100002.06
2022-07-26T15:47:04.652Z,100003.91
2022-07-26T15:49:31.965Z,100005.78
2022-07-26T15:51:59.295Z,99994.50
2022-07-26T15:54:26.557Z,99991.28
2022-07-26T15:56:53.693Z,99999.16
2022-07-26T15:59:21.025Z,100002.78
2022-07-26T16:01:48.227Z,100002.13
2022-07-26T16:04:15.521Z,100005.91
2022-07-26T16:06:42.921Z,99989.81
2022-07-26T16:09:17.206Z,99985.13
2022-07-26T16:11:45.821Z,99986.84
2022-07-26T16:14:12.997Z,99992.19
2022-07-26T16:16:40.238Z,99998.78
2022-07-26T16:19:07.854Z,99996.88
2022-07-26T16:21:35.311Z,99992.41
2022-07-26T16:24:06.655Z,99988.28
2022-07-26T16:26:35.481Z,99989.09
2022-07-26T16:29:02.963Z,99985.13
2022-07-26T16:31:30.565Z,99992.78
2022-07-26T16:33:57.790Z,99992.59
2022-07-26T16:36:25.139Z,99996.19
2022-07-26T16:38:55.110Z,99989.94
2022-07-26T16:41:22.893Z,99988.47
2022-07-26T16:43:50.527Z,99989.75
2022-07-26T16:46:18.125Z,99992.88
2022-07-26T16:48:45.543Z,99990.53
2022-07-26T16:51:16.776Z,99994.75
2022-07-26T16:53:45.272Z,99996.84
2022-07-26T16:56:12.542Z,99990.88
2022-07-26T16:58:39.957Z,99991.09
2022-07-26T17:01:07.767Z,99993.63
2022-07-26T17:03:35.393Z,99994.16
2022-07-26T17:06:06.685Z,99989.06
2022-07-26T17:08:34.608Z,99992.25
2022-07-26T17:11:02.193Z,99991.19
2022-07-26T17:13:29.466Z,99989.28
2022-07-26T17:15:56.811Z,99993.38
2022-07-26T17:18:24.297Z,99995.88
2022-07-26T17:20:51.554Z,99997.47
2022-07-26T17:23:19.509Z,99998.50
2022-07-26T17:25:46.772Z,100002.31
2022-07-26T17:28:14.291Z,100003.81
2022-07-26T17:30:41.531Z,100000.22
2022-07-26T17:33:08.936Z,100003.38
2022-07-26T17:35:36.425Z,100006.88
2022-07-26T17:38:04.441Z,100002.41
2022-07-26T17:40:33.750Z,100001.09
2022-07-26T17:43:01.104Z,100006.16
2022-07-26T17:45:28.361Z,100008.00
2022-07-26T17:47:55.614Z,100013.47
2022-07-26T17:50:38.864Z,100016.34
2022-07-26T17:53:06.565Z,100017.13
2022-07-26T17:55:33.950Z,100018.78
2022-07-26T17:58:01.233Z,100017.00
2022-07-26T18:00:28.930Z,100022.00
2022-07-26T18:02:57.060Z,100025.16
2022-07-26T18:05:31.744Z,100020.91
2022-07-26T18:08:01.587Z,100016.06
2022-07-26T18:10:29.215Z,100014.16
2022-07-26T18:12:56.475Z,100012.16
2022-07-26T18:15:23.754Z,100013.97
2022-07-26T18:17:51.078Z,99993.22
2022-07-26T18:20:18.426Z,100000.22
2022-07-26T18:22:50.182Z,99992.25
2022-07-26T18:25:17.876Z,100002.16
2022-07-26T18:27:45.264Z,100004.59
2022-07-26T18:30:12.706Z,100006.03
2022-07-26T18:32:40.149Z,99998.94
2022-07-26T18:35:07.551Z,99993.63
2022-07-26T18:37:34.778Z,99994.47
2022-07-26T18:40:02.084Z,100002.13
2022-07-26T18:42:29.309Z,99997.59
2022-07-26T18:44:56.509Z,100018.50
2022-07-26T18:47:23.726Z,100027.81
2022-07-26T18:49:51.391Z,100030.25
2022-07-26T18:52:28.559Z,100024.47
2022-07-26T18:55:00.972Z,100029.19
2022-07-26T18:57:28.200Z,100044.53
2022-07-26T18:59:55.339Z,100058.63
2022-07-26T19:02:22.555Z,100057.97
2022-07-26T19:04:49.784Z,100064.13
2022-07-26T19:07:17.023Z,100071.41
2022-07-26T19:09:44.225Z,100076.41
2022-07-26T19:12:11.397Z,100084.00
2022-07-26T19:14:38.589Z,100085.03
2022-07-26T19:17:09.783Z,100086.75
2022-07-26T19:19:37.582Z,100084.00
2022-07-26T19:22:05.429Z,100094.72
2022-07-26T19:24:41.806Z,100097.72
2022-07-26T19:27:09.492Z,100103.06
2022-07-26T19:29:37.616Z,100105.19
2022-07-26T19:32:05.450Z,100104.34
2022-07-26T19:34:32.832Z,100120.63
2022-07-26T19:37:00.058Z,100114.66
2022-07-26T19:39:27.284Z,100113.44
2022-07-26T19:41:54.608Z,100106.91
2022-07-26T19:44:22.091Z,100107.75
2022-07-26T19:46:53.011Z,100104.34
2022-07-26T19:49:22.800Z,100101.88
2022-07-26T19:51:50.133Z,100105.47
2022-07-26T19:54:17.318Z,100113.19
2022-07-26T19:56:44.498Z,100109.09
2022-07-26T19:59:12.041Z,100110.63
2022-07-26T20:01:39.725Z,100110.97
2022-07-26T20:04:07.011Z,100111.72
2022-07-26T20:06:35.309Z,100102.81
2022-07-26T20:09:02.462Z,100105.72
2022-07-26T20:11:29.640Z,100104.88
2022-07-26T20:13:56.831Z,100099.03
2022-07-26T20:16:24.075Z,100103.69
2022-07-26T20:18:51.308Z,100110.53
2022-07-26T20:21:18.587Z,100108.69
2022-07-26T20:23:45.908Z,100111.44
2022-07-26T20:26:14.323Z,100107.56
2022-07-26T20:28:42.132Z,100103.53
2022-07-26T20:31:09.352Z,100103.81
2022-07-26T20:33:36.636Z,100111.53
2022-07-26T20:36:03.945Z,100114.09
2022-07-26T20:38:31.136Z,100112.91
2022-07-26T20:41:05.319Z,100112.91
2022-07-26T20:43:34.511Z,100117.56
2022-07-26T20:46:02.243Z,100119.13
2022-07-26T20:48:29.826Z,100116.38
2022-07-26T20:50:57.130Z,100123.59
2022-07-26T20:53:25.001Z,100126.66
2022-07-26T20:55:52.244Z,100145.22
2022-07-26T20:58:20.112Z,100137.00
2022-07-26T21:00:47.409Z,100141.97
2022-07-26T21:03:16.867Z,100140.78
2022-07-26T21:05:44.785Z,100137.19
2022-07-26T21:08:12.246Z,100138.78
2022-07-26T21:10:39.682Z,100147.34
2022-07-26T21:13:06.996Z,100147.69
2022-07-26T21:15:34.674Z,100136.72
2022-07-26T21:18:01.843Z,100139.88
2022-07-26T21:20:29.245Z,100142.41
2022-07-26T21:23:08.077Z,100146.56
2022-07-26T21:25:43.737Z,100140.91
2022-07-26T21:28:11.284Z,100151.22
2022-07-26T21:30:38.655Z,100148.09
2022-07-26T21:33:06.145Z,100153.09
2022-07-26T21:35:33.605Z,100153.09
2022-07-26T21:38:01.088Z,100154.09
2022-07-26T21:40:28.408Z,100152.06
2022-07-26T21:42:55.615Z,100154.59
2022-07-26T21:45:22.789Z,100154.94
2022-07-26T21:47:50.015Z,100162.66
2022-07-26T21:50:17.291Z,100161.78
2022-07-26T21:52:44.479Z,100162.75
2022-07-26T21:55:15.547Z,100150.44
2022-07-26T21:57:45.484Z,100163.13
2022-07-26T22:00:14.712Z,100158.84
2022-07-26T22:02:42.122Z,100154.03
2022-07-26T22:05:27.716Z,100160.91
2022-07-26T22:07:55.573Z,100163.97
2022-07-26T22:10:22.797Z,100170.19
2022-07-26T22:12:50.017Z,100174.47
2022-07-26T22:15:17.276Z,100176.88
2022-07-26T22:17:44.527Z,100189.72
2022-07-26T22:20:11.965Z,100196.44
2022-07-26T22:22:39.340Z,100196.25
2022-07-26T22:25:06.748Z,100199.72
2022-07-26T22:27:34.521Z,100202.97
2022-07-26T22:30:02.741Z,100205.03
2022-07-26T22:32:29.954Z,100197.81
2022-07-26T22:34:57.173Z,100202.59
2022-07-26T22:37:24.400Z,100212.41
2022-07-26T22:39:51.608Z,100219.06
2022-07-26T22:42:18.859Z,100222.50
2022-07-26T22:44:46.092Z,100228.66
2022-07-26T22:47:13.258Z,100230.56
2022-07-26T22:49:40.550Z,100220.25
2022-07-26T22:52:07.887Z,100219.91
2022-07-26T22:54:35.044Z,100216.50
2022-07-26T22:57:02.294Z,100206.19
2022-07-26T22:59:29.479Z,100195.41
2022-07-26T23:01:56.993Z,100200.22
2022-07-26T23:04:24.189Z,100198.63
2022-07-26T23:06:52.065Z,100204.28
2022-07-26T23:09:22.039Z,100205.50
2022-07-26T23:11:49.248Z,100202.94
2022-07-26T23:14:16.511Z,100211.66
2022-07-26T23:16:43.721Z,100220.09
2022-07-26T23:19:11.447Z,100223.69
2022-07-26T23:21:38.852Z,100226.06
2022-07-26T23:24:06.211Z,100244.09
2022-07-26T23:26:33.429Z,100235.84
2022-07-26T23:29:00.662Z,100230.19
2022-07-26T23:31:27.964Z,100229.34
2022-07-26T23:33:55.196Z,100229.84
2022-07-26T23:36:26.244Z,100230.69
2022-07-26T23:38:54.314Z,100241.28
2022-07-26T23:41:21.573Z,100237.88
2022-07-26T23:43:48.767Z,100239.25
2022-07-26T23:46:16.194Z,100241.34
2022-07-26T23:48:43.514Z,100244.75
2022-07-26T23:51:10.741Z,100240.97
2022-07-26T23:53:37.999Z,100242.19
2022-07-26T23:56:05.288Z,100254.50
2022-07-26T23:58:32.456Z,100259.16
